METAR Wetterstationen im Umkreis von Akouda bei Sousse, Tunesien

 

DTMB - Habib Bourguiba, Tunisia
Distanz von der Station: SE 21km
Aktualisiert: Wed, 16-Jan-2019 9:00pm CET
Few Clouds
Few Clouds
 Wind from ESE
Wind: ESE 9 km/h
Temperatur: 12°C
Taupunkt: 7°C
Feuchte: 72%
Luftdruck: 1022 hPa
Wolken: Few Clouds
Sichtweite: 10 km
Wolkendetails: Few Clouds 1402 m
2019/01/16 20:00 DTMB 162000Z 11005KT 9999 FEW046 12/07 Q1022
DTNH - Enfidha, Tunisia
Distanz von der Station: NNW 24km
Aktualisiert: Wed, 16-Jan-2019 9:00pm CET
Clear
Clear
 Wind from SSE
Wind: SSE 13 km/h
Temperatur: 11°C
Taupunkt: 5°C
Feuchte: 67%
Luftdruck: 1022 hPa
Bedingungen: Clear
Sichtweite: groesser als 10 km
2019/01/16 20:00 DTNH 162000Z 16007KT CAVOK 11/05 Q1022
 
DTTK - Kairouan, Tunisia
Distanz von der Station: WSW 50km
Aktualisiert: Wed, 16-Jan-2019 9:00pm CET
Few Clouds
Few Clouds
 Wind from varies
Wind: varies 4 km/h
Temperatur: 11°C
Taupunkt: 5°C
Feuchte: 67%
Luftdruck: 1022 hPa
Wolken: Few Clouds
Sichtweite: 10 km
Wolkendetails: Few Clouds 701 m
2019/01/16 20:00 DTTK 162000Z VRB02KT 9999 FEW023 11/05 Q1022
DTTA - Tunis/Carthage, Tunisia
Distanz von der Station: NNW 112km
Aktualisiert: Wed, 16-Jan-2019 9:00pm CET
Partly Cloudy
Partly Cloudy
 Wind from SE
Wind: SE 7 km/h
Temperatur: 12°C
Taupunkt: 8°C
Feuchte: 77%
Luftdruck: 1021 hPa
Wolken: Partly Cloudy
Sichtweite: 10 km
Wolkendetails: Partly Cloudy 792 m
2019/01/16 20:00 DTTA 162000Z 13004KT 100V160 9999 SCT026 12/08 Q1021 NOSIG
 
DTTL - Kelibia, Tunisia
Distanz von der Station: NNE 117km
Aktualisiert: Wed, 16-Jan-2019 9:00pm CET
Clear
Clear
 Wind from SSE
Wind: SSE 9 km/h
Temperatur: 14°C
Taupunkt: 9°C
Feuchte: 72%
Luftdruck: 1022 hPa
Wolken: Clear
2019/01/16 20:00 DTTL 162000Z AUTO 16005KT 100V200 NCD 14/09 Q1022
DTTX - Sfax/El-Maou, Tunisia
Distanz von der Station: S 130km
Aktualisiert: Wed, 16-Jan-2019 9:00pm CET
Few Clouds
Few Clouds
 Wind from E
Wind: E 7 km/h
Temperatur: 12°C
Taupunkt: 8°C
Feuchte: 77%
Luftdruck: 1022 hPa
Wolken: Few Clouds
Sichtweite: 10 km
Wolkendetails: Few Clouds 914 m
2019/01/16 20:00 DTTX 162000Z 10004KT 9999 FEW030 12/08 Q1022 NOSIG
 
DTTB - Bizerte/Sidi Ahm, Tunisia
Distanz von der Station: NNW 167km
Aktualisiert: Wed, 16-Jan-2019 9:00pm CET
Few Clouds
Few Clouds
 Wind from SE
Wind: SE 13 km/h
Temperatur: 10°C
Windchill: 8°C
Taupunkt: 8°C
Feuchte: 88%
Luftdruck: 1020 hPa
Wolken: Few Clouds
Sichtweite: 10 km
Wolkendetails: Few Clouds 610 m
2019/01/16 20:00 DTTB 162000Z 14007KT 9999 FEW020 10/08 Q1020
DTTN - Jendouba, Tunisia
Distanz von der Station: WNW 171km
Aktualisiert: Wed, 16-Jan-2019 9:00pm CET
Few Clouds
Few Clouds
 Wind from SSW
Wind: SSW 19 km/h
Temperatur: 11°C
Taupunkt: 4°C
Feuchte: 62%
Luftdruck: 1020 hPa
Wolken: Few Clouds
Sichtweite: 10 km
Wolkendetails: Few Clouds 610 m
2019/01/16 20:00 DTTN 162000Z 20010KT 9999 FEW020 11/04 Q1020
 
DTKA - Tabarka, Tunisia
Distanz von der Station: NW 194km
Aktualisiert: Wed, 16-Jan-2019 9:00pm CET

 Wind from varies
Wind: varies 4 km/h
2019/01/16 20:00 DTKA 162000Z AUTO VRB02KT /// 13/// Q1019
DTTJ - Djerba Mellita, Tunisia
Distanz von der Station: S 225km
Aktualisiert: Wed, 16-Jan-2019 9:00pm CET
Few Clouds
Few Clouds
 Wind from E
Wind: E 11 km/h
Temperatur: 12°C
Taupunkt: 7°C
Feuchte: 72%
Luftdruck: 1022 hPa
Wolken: Few Clouds
Sichtweite: 10 km
Wolkendetails: Few Clouds 701 m
2019/01/16 20:00 DTTJ 162000Z 10006KT 9999 FEW023 12/07 Q1022 NOSIG
 
DTTF - Gafsa, Tunisia
Distanz von der Station: SW 228km
Aktualisiert: Wed, 16-Jan-2019 9:00pm CET
Few Clouds
Few Clouds
 Wind from NNE
Wind: NNE 4 km/h
Temperatur: 8°C
Taupunkt: 3°C
Feuchte: 71%
Luftdruck: 1021 hPa
Wolken: Few Clouds
Sichtweite: 10 km
Wolkendetails: Few Clouds 701 m
2019/01/16 20:00 DTTF 162000Z 02002KT 9999 FEW023 08/03 Q1021 NOSIG
DTTG - Gabes, Tunisia
Distanz von der Station: SSW 246km
Aktualisiert: Wed, 16-Jan-2019 9:00pm CET
Partly Cloudy
Partly Cloudy
 Wind from ESE
Wind: ESE 17 km/h
Temperatur: 9°C
Windchill: 7°C
Taupunkt: 5°C
Feuchte: 76%
Luftdruck: 1021 hPa
Wolken: Partly Cloudy
Sichtweite: 10 km
Wolkendetails: Partly Cloudy 914 m
2019/01/16 20:00 DTTG 162000Z 12009KT 9999 SCT030 09/05 Q1021 NOSIG
 
DTTZ - Tozeur/Nefta, Tunisia
Distanz von der Station: SW 315km
Aktualisiert: Wed, 16-Jan-2019 9:00pm CET
Few Clouds
Few Clouds
 Wind from ENE
Wind: ENE 13 km/h
Temperatur: 12°C
Taupunkt: 2°C
Feuchte: 51%
Luftdruck: 1020 hPa
Wolken: Few Clouds
Sichtweite: 10 km
Wolkendetails: Few Clouds 1006 m
2019/01/16 20:00 DTTZ 162000Z 06007KT 9999 FEW033 12/02 Q1020 NOSIG
DABS - Tebessa, Algeria
Distanz von der Station: WSW 227km
Aktualisiert: Wed, 16-Jan-2019 9:00pm CET
Few Clouds
Few Clouds
 Wind from S
Wind: S 11 km/h
Temperatur: 7°C
Windchill: 5°C
Taupunkt: 0°C
Feuchte: 61%
Luftdruck: 1020 hPa
Wolken: Few Clouds
Sichtweite: 10 km
Wolkendetails: Few Clouds 1006 m
2019/01/16 20:00 DABS 162000Z 17006KT 9999 FEW033 07/M00 Q1020
 
LICD - Lampedusa Island, Italy
Distanz von der Station: ESE 190km
Aktualisiert: Wed, 16-Jan-2019 8:50pm CET
Clear
Clear
 Wind from S
Wind: S 15 km/h
Temperatur: 14°C
Taupunkt: 9°C
Feuchte: 72%
Luftdruck: 1023 hPa
Bedingungen: Clear
Sichtweite: groesser als 10 km
2019/01/16 19:50 LICD 161950Z 19008KT CAVOK 14/09 Q1023
LICJ - Palermo/Point Ra, Italy
Distanz von der Station: NE 338km
Aktualisiert: Wed, 16-Jan-2019 8:50pm CET
Clear
Clear
 Wind from SSE
Wind: SSE 11 km/h
Temperatur: 10°C
Windchill: 8°C
Taupunkt: 3°C
Feuchte: 62%
Luftdruck: 1023 hPa
Bedingungen: Clear
Sichtweite: groesser als 10 km
2019/01/16 19:50 LICJ 161950Z 16006KT CAVOK 10/03 Q1023
 
LICG - Pantelleria(It-A, Italy
Distanz von der Station: NE 163km
Aktualisiert: Wed, 16-Jan-2019 6:55pm CET
nicht aktuell
Clear
Clear
 Wind from varies
Wind: varies 0 km/h
Temperatur: 10°C
Taupunkt: 7°C
Feuchte: 82%
Luftdruck: 1022 hPa
Bedingungen: Clear
Sichtweite: groesser als 10 km
2019/01/16 17:55 LICG 161755Z /////KT CAVOK 10/07 Q1022
LMML - Luqa/Malta, Malta
Distanz von der Station: E 351km
Aktualisiert: Wed, 16-Jan-2019 8:45pm CET
Few Clouds
Few Clouds
 Wind from S
Wind: S 17 km/h
Temperatur: 12°C
Taupunkt: 7°C
Feuchte: 72%
Luftdruck: 1024 hPa
Wolken: Few Clouds
Sichtweite: 10 km
Wolkendetails: Few Clouds 1433 m
2019/01/16 19:45 LMML 161945Z 17009KT 9999 FEW047 12/07 Q1024 NOSIG

Metar display script from Saratoga-Weather.org